sensor_id;sensor_type;location;lat;lon;timestamp;P1;durP1;ratioP1;P2;durP2;ratioP2
28003;SDS011;15330;51.234;6.754;2023-03-23T00:01:07;3.58;;;2.45;;
28003;SDS011;15330;51.234;6.754;2023-03-23T00:03:44;3.78;;;2.40;;
28003;SDS011;15330;51.234;6.754;2023-03-23T00:06:11;5.20;;;2.67;;
28003;SDS011;15330;51.234;6.754;2023-03-23T00:08:42;3.42;;;2.40;;
28003;SDS011;15330;51.234;6.754;2023-03-23T00:13:39;4.35;;;2.97;;
28003;SDS011;15330;51.234;6.754;2023-03-23T00:16:06;6.35;;;2.95;;
28003;SDS011;15330;51.234;6.754;2023-03-23T00:18:44;3.92;;;2.80;;
28003;SDS011;15330;51.234;6.754;2023-03-23T00:21:17;3.92;;;2.67;;
28003;SDS011;15330;51.234;6.754;2023-03-23T00:23:50;7.72;;;3.00;;
28003;SDS011;15330;51.234;6.754;2023-03-23T00:26:18;3.17;;;2.33;;
28003;SDS011;15330;51.234;6.754;2023-03-23T00:28:44;5.80;;;2.53;;
28003;SDS011;15330;51.234;6.754;2023-03-23T00:31:11;4.70;;;2.70;;
28003;SDS011;15330;51.234;6.754;2023-03-23T00:33:38;3.05;;;2.50;;
28003;SDS011;15330;51.234;6.754;2023-03-23T00:36:09;4.10;;;2.90;;
28003;SDS011;15330;51.234;6.754;2023-03-23T00:38:36;6.20;;;2.85;;
28003;SDS011;15330;51.234;6.754;2023-03-23T00:41:03;5.90;;;2.72;;
28003;SDS011;15330;51.234;6.754;2023-03-23T00:43:29;5.00;;;2.50;;
28003;SDS011;15330;51.234;6.754;2023-03-23T00:45:55;7.32;;;3.00;;
28003;SDS011;15330;51.234;6.754;2023-03-23T00:48:26;5.45;;;2.92;;
28003;SDS011;15330;51.234;6.754;2023-03-23T00:50:53;3.03;;;2.70;;
28003;SDS011;15330;51.234;6.754;2023-03-23T00:53:18;3.50;;;2.60;;
28003;SDS011;15330;51.234;6.754;2023-03-23T00:55:44;5.28;;;2.97;;
28003;SDS011;15330;51.234;6.754;2023-03-23T00:58:11;3.00;;;2.15;;
28003;SDS011;15330;51.234;6.754;2023-03-23T01:00:37;3.22;;;2.42;;
28003;SDS011;15330;51.234;6.754;2023-03-23T01:03:03;6.97;;;3.00;;
28003;SDS011;15330;51.234;6.754;2023-03-23T01:05:29;4.53;;;2.78;;
28003;SDS011;15330;51.234;6.754;2023-03-23T01:07:58;4.22;;;2.72;;
28003;SDS011;15330;51.234;6.754;2023-03-23T01:10:24;4.80;;;2.85;;
28003;SDS011;15330;51.234;6.754;2023-03-23T01:12:51;3.42;;;2.53;;
28003;SDS011;15330;51.234;6.754;2023-03-23T01:15:18;5.80;;;2.63;;
28003;SDS011;15330;51.234;6.754;2023-03-23T01:17:44;5.18;;;2.67;;
28003;SDS011;15330;51.234;6.754;2023-03-23T01:20:11;5.97;;;2.65;;
28003;SDS011;15330;51.234;6.754;2023-03-23T01:22:39;2.85;;;2.40;;
28003;SDS011;15330;51.234;6.754;2023-03-23T01:25:04;5.68;;;2.83;;
28003;SDS011;15330;51.234;6.754;2023-03-23T01:27:30;3.63;;;2.45;;
28003;SDS011;15330;51.234;6.754;2023-03-23T01:29:56;5.75;;;2.78;;
28003;SDS011;15330;51.234;6.754;2023-03-23T01:32:21;6.72;;;2.60;;
28003;SDS011;15330;51.234;6.754;2023-03-23T01:34:47;4.13;;;2.85;;
28003;SDS011;15330;51.234;6.754;2023-03-23T01:37:12;3.88;;;2.75;;
28003;SDS011;15330;51.234;6.754;2023-03-23T01:39:37;5.68;;;2.70;;
28003;SDS011;15330;51.234;6.754;2023-03-23T01:42:03;5.07;;;2.72;;
28003;SDS011;15330;51.234;6.754;2023-03-23T01:46:55;5.88;;;2.83;;
28003;SDS011;15330;51.234;6.754;2023-03-23T01:49:24;5.93;;;3.28;;
28003;SDS011;15330;51.234;6.754;2023-03-23T01:52:02;5.40;;;3.13;;
28003;SDS011;15330;51.234;6.754;2023-03-23T01:54:35;5.82;;;3.20;;
28003;SDS011;15330;51.234;6.754;2023-03-23T01:57:06;3.20;;;2.78;;
28003;SDS011;15330;51.234;6.754;2023-03-23T01:59:36;5.05;;;3.22;;
28003;SDS011;15330;51.234;6.754;2023-03-23T02:02:02;5.68;;;2.95;;
28003;SDS011;15330;51.234;6.754;2023-03-23T02:04:29;5.43;;;2.92;;
28003;SDS011;15330;51.234;6.754;2023-03-23T02:06:56;4.20;;;3.40;;
28003;SDS011;15330;51.234;6.754;2023-03-23T02:09:23;5.57;;;3.20;;
28003;SDS011;15330;51.234;6.754;2023-03-23T02:11:50;5.65;;;3.47;;
28003;SDS011;15330;51.234;6.754;2023-03-23T02:14:16;4.82;;;3.47;;
28003;SDS011;15330;51.234;6.754;2023-03-23T02:16:55;4.38;;;3.83;;
28003;SDS011;15330;51.234;6.754;2023-03-23T02:19:28;6.22;;;3.65;;
28003;SDS011;15330;51.234;6.754;2023-03-23T02:35:50;5.10;;;3.15;;
28003;SDS011;15330;51.234;6.754;2023-03-23T02:38:22;5.80;;;3.47;;
28003;SDS011;15330;51.234;6.754;2023-03-23T02:40:55;4.70;;;3.30;;
28003;SDS011;15330;51.234;6.754;2023-03-23T02:43:25;3.53;;;2.78;;
28003;SDS011;15330;51.234;6.754;2023-03-23T02:45:53;4.60;;;3.30;;
28003;SDS011;15330;51.234;6.754;2023-03-23T02:48:22;4.30;;;2.90;;
28003;SDS011;15330;51.234;6.754;2023-03-23T02:50:52;2.97;;;2.60;;
28003;SDS011;15330;51.234;6.754;2023-03-23T02:53:18;4.95;;;3.00;;
28003;SDS011;15330;51.234;6.754;2023-03-23T02:55:47;4.22;;;2.90;;
28003;SDS011;15330;51.234;6.754;2023-03-23T02:58:17;3.20;;;2.50;;
28003;SDS011;15330;51.234;6.754;2023-03-23T03:00:44;3.42;;;2.30;;
28003;SDS011;15330;51.234;6.754;2023-03-23T03:03:15;5.22;;;2.60;;
28003;SDS011;15330;51.234;6.754;2023-03-23T03:08:59;3.65;;;2.38;;
28003;SDS011;15330;51.234;6.754;2023-03-23T03:11:33;3.30;;;2.50;;
28003;SDS011;15330;51.234;6.754;2023-03-23T03:14:08;2.80;;;2.30;;
28003;SDS011;15330;51.234;6.754;2023-03-23T03:16:45;6.38;;;2.75;;
28003;SDS011;15330;51.234;6.754;2023-03-23T03:19:31;6.13;;;2.20;;
28003;SDS011;15330;51.234;6.754;2023-03-23T03:22:00;3.05;;;2.30;;
28003;SDS011;15330;51.234;6.754;2023-03-23T03:24:27;4.45;;;2.38;;
28003;SDS011;15330;51.234;6.754;2023-03-23T03:26:55;3.30;;;2.38;;
28003;SDS011;15330;51.234;6.754;2023-03-23T03:29:33;2.55;;;2.20;;
28003;SDS011;15330;51.234;6.754;2023-03-23T03:32:03;2.22;;;1.92;;
28003;SDS011;15330;51.234;6.754;2023-03-23T03:34:33;4.50;;;2.33;;
28003;SDS011;15330;51.234;6.754;2023-03-23T03:36:59;4.20;;;2.33;;
28003;SDS011;15330;51.234;6.754;2023-03-23T03:39:25;4.32;;;2.17;;
28003;SDS011;15330;51.234;6.754;2023-03-23T03:41:52;3.22;;;2.15;;
28003;SDS011;15330;51.234;6.754;2023-03-23T03:44:19;2.50;;;1.85;;
28003;SDS011;15330;51.234;6.754;2023-03-23T03:46:44;3.58;;;2.20;;
28003;SDS011;15330;51.234;6.754;2023-03-23T03:49:10;2.85;;;2.38;;
28003;SDS011;15330;51.234;6.754;2023-03-23T03:51:37;3.58;;;2.17;;
28003;SDS011;15330;51.234;6.754;2023-03-23T03:54:04;2.95;;;2.38;;
28003;SDS011;15330;51.234;6.754;2023-03-23T03:56:29;2.97;;;2.10;;
28003;SDS011;15330;51.234;6.754;2023-03-23T03:58:57;4.10;;;2.00;;
28003;SDS011;15330;51.234;6.754;2023-03-23T04:01:22;3.90;;;2.22;;
28003;SDS011;15330;51.234;6.754;2023-03-23T04:03:49;3.08;;;2.20;;
28003;SDS011;15330;51.234;6.754;2023-03-23T04:06:15;5.05;;;2.75;;
28003;SDS011;15330;51.234;6.754;2023-03-23T04:08:41;4.00;;;2.80;;
28003;SDS011;15330;51.234;6.754;2023-03-23T04:11:08;5.32;;;2.50;;
28003;SDS011;15330;51.234;6.754;2023-03-23T04:13:35;2.92;;;2.45;;
28003;SDS011;15330;51.234;6.754;2023-03-23T04:16:01;3.20;;;2.45;;
28003;SDS011;15330;51.234;6.754;2023-03-23T04:18:27;3.78;;;2.70;;
28003;SDS011;15330;51.234;6.754;2023-03-23T04:20:53;7.60;;;3.25;;
28003;SDS011;15330;51.234;6.754;2023-03-23T04:23:24;3.10;;;2.63;;
28003;SDS011;15330;51.234;6.754;2023-03-23T04:25:51;3.97;;;2.33;;
28003;SDS011;15330;51.234;6.754;2023-03-23T04:28:18;3.30;;;2.33;;
28003;SDS011;15330;51.234;6.754;2023-03-23T04:30:48;4.82;;;2.20;;
28003;SDS011;15330;51.234;6.754;2023-03-23T04:33:18;6.03;;;2.90;;
28003;SDS011;15330;51.234;6.754;2023-03-23T04:35:43;3.58;;;2.13;;
28003;SDS011;15330;51.234;6.754;2023-03-23T04:38:11;7.68;;;2.63;;
28003;SDS011;15330;51.234;6.754;2023-03-23T04:40:39;3.33;;;2.38;;
28003;SDS011;15330;51.234;6.754;2023-03-23T04:43:05;5.07;;;2.45;;
28003;SDS011;15330;51.234;6.754;2023-03-23T04:45:31;4.38;;;2.50;;
28003;SDS011;15330;51.234;6.754;2023-03-23T04:47:58;3.92;;;2.50;;
28003;SDS011;15330;51.234;6.754;2023-03-23T04:50:26;4.05;;;2.60;;
28003;SDS011;15330;51.234;6.754;2023-03-23T04:52:55;6.00;;;2.75;;
28003;SDS011;15330;51.234;6.754;2023-03-23T04:55:22;5.55;;;3.03;;
28003;SDS011;15330;51.234;6.754;2023-03-23T04:57:49;6.30;;;2.78;;
28003;SDS011;15330;51.234;6.754;2023-03-23T05:00:14;4.38;;;2.90;;
28003;SDS011;15330;51.234;6.754;2023-03-23T05:02:41;4.22;;;2.83;;
28003;SDS011;15330;51.234;6.754;2023-03-23T05:05:08;4.03;;;2.92;;
28003;SDS011;15330;51.234;6.754;2023-03-23T05:07:37;5.28;;;3.00;;
28003;SDS011;15330;51.234;6.754;2023-03-23T05:10:04;4.53;;;3.00;;
28003;SDS011;15330;51.234;6.754;2023-03-23T05:12:30;6.28;;;3.00;;
28003;SDS011;15330;51.234;6.754;2023-03-23T05:14:55;4.57;;;2.50;;
28003;SDS011;15330;51.234;6.754;2023-03-23T05:17:21;3.50;;;2.70;;
28003;SDS011;15330;51.234;6.754;2023-03-23T05:19:49;4.95;;;3.00;;
28003;SDS011;15330;51.234;6.754;2023-03-23T05:22:15;6.47;;;3.08;;
28003;SDS011;15330;51.234;6.754;2023-03-23T05:24:41;5.28;;;2.47;;
28003;SDS011;15330;51.234;6.754;2023-03-23T05:27:08;3.75;;;2.92;;
28003;SDS011;15330;51.234;6.754;2023-03-23T05:29:36;6.70;;;2.95;;
28003;SDS011;15330;51.234;6.754;2023-03-23T05:32:05;6.65;;;3.22;;
28003;SDS011;15330;51.234;6.754;2023-03-23T05:34:32;3.28;;;2.53;;
28003;SDS011;15330;51.234;6.754;2023-03-23T05:36:59;4.65;;;2.80;;
28003;SDS011;15330;51.234;6.754;2023-03-23T05:39:25;5.15;;;2.92;;
28003;SDS011;15330;51.234;6.754;2023-03-23T05:41:51;2.83;;;2.58;;
28003;SDS011;15330;51.234;6.754;2023-03-23T05:44:17;4.03;;;2.58;;
28003;SDS011;15330;51.234;6.754;2023-03-23T05:46:43;4.53;;;2.70;;
28003;SDS011;15330;51.234;6.754;2023-03-23T05:49:08;4.93;;;2.80;;
28003;SDS011;15330;51.234;6.754;2023-03-23T05:51:34;6.57;;;2.80;;
28003;SDS011;15330;51.234;6.754;2023-03-23T05:53:59;3.67;;;2.90;;
28003;SDS011;15330;51.234;6.754;2023-03-23T05:56:25;8.75;;;2.90;;
28003;SDS011;15330;51.234;6.754;2023-03-23T05:58:51;8.90;;;3.10;;
28003;SDS011;15330;51.234;6.754;2023-03-23T06:01:17;6.03;;;2.95;;
28003;SDS011;15330;51.234;6.754;2023-03-23T06:03:42;4.03;;;2.58;;
28003;SDS011;15330;51.234;6.754;2023-03-23T06:06:12;5.90;;;2.63;;
28003;SDS011;15330;51.234;6.754;2023-03-23T06:08:38;6.40;;;2.58;;
28003;SDS011;15330;51.234;6.754;2023-03-23T06:11:04;8.95;;;3.78;;
28003;SDS011;15330;51.234;6.754;2023-03-23T06:13:30;7.72;;;3.45;;
28003;SDS011;15330;51.234;6.754;2023-03-23T06:15:56;4.00;;;2.72;;
28003;SDS011;15330;51.234;6.754;2023-03-23T06:18:24;7.55;;;3.65;;
28003;SDS011;15330;51.234;6.754;2023-03-23T06:20:50;5.28;;;3.10;;
28003;SDS011;15330;51.234;6.754;2023-03-23T06:23:16;7.07;;;2.47;;
28003;SDS011;15330;51.234;6.754;2023-03-23T06:25:42;9.15;;;2.50;;
28003;SDS011;15330;51.234;6.754;2023-03-23T06:28:08;8.70;;;2.67;;
28003;SDS011;15330;51.234;6.754;2023-03-23T06:30:34;6.05;;;2.42;;
28003;SDS011;15330;51.234;6.754;2023-03-23T06:33:01;5.85;;;2.65;;
28003;SDS011;15330;51.234;6.754;2023-03-23T06:35:30;11.18;;;3.10;;
28003;SDS011;15330;51.234;6.754;2023-03-23T06:37:56;7.28;;;2.63;;
28003;SDS011;15330;51.234;6.754;2023-03-23T06:40:23;9.30;;;2.50;;
28003;SDS011;15330;51.234;6.754;2023-03-23T06:42:48;8.25;;;3.17;;
28003;SDS011;15330;51.234;6.754;2023-03-23T06:45:14;4.55;;;2.58;;
28003;SDS011;15330;51.234;6.754;2023-03-23T06:47:39;7.00;;;2.70;;
28003;SDS011;15330;51.234;6.754;2023-03-23T06:50:05;4.90;;;2.63;;
28003;SDS011;15330;51.234;6.754;2023-03-23T06:52:31;5.07;;;2.22;;
28003;SDS011;15330;51.234;6.754;2023-03-23T06:54:56;6.00;;;2.50;;
28003;SDS011;15330;51.234;6.754;2023-03-23T06:57:22;7.50;;;2.83;;
28003;SDS011;15330;51.234;6.754;2023-03-23T06:59:47;5.80;;;2.50;;
28003;SDS011;15330;51.234;6.754;2023-03-23T07:02:13;5.20;;;2.53;;
28003;SDS011;15330;51.234;6.754;2023-03-23T07:04:39;4.32;;;2.50;;
28003;SDS011;15330;51.234;6.754;2023-03-23T07:07:07;10.02;;;3.50;;
28003;SDS011;15330;51.234;6.754;2023-03-23T07:09:33;5.90;;;2.22;;
28003;SDS011;15330;51.234;6.754;2023-03-23T07:11:58;5.30;;;2.25;;
28003;SDS011;15330;51.234;6.754;2023-03-23T07:14:24;8.50;;;2.45;;
28003;SDS011;15330;51.234;6.754;2023-03-23T07:16:49;5.10;;;2.35;;
28003;SDS011;15330;51.234;6.754;2023-03-23T07:19:15;7.90;;;2.40;;
28003;SDS011;15330;51.234;6.754;2023-03-23T07:21:41;8.65;;;2.17;;
28003;SDS011;15330;51.234;6.754;2023-03-23T07:24:09;5.75;;;2.08;;
28003;SDS011;15330;51.234;6.754;2023-03-23T07:26:38;5.40;;;2.25;;
28003;SDS011;15330;51.234;6.754;2023-03-23T07:29:07;5.70;;;2.50;;
28003;SDS011;15330;51.234;6.754;2023-03-23T07:31:33;5.07;;;2.28;;
28003;SDS011;15330;51.234;6.754;2023-03-23T07:33:59;8.82;;;2.15;;
28003;SDS011;15330;51.234;6.754;2023-03-23T07:36:25;7.10;;;1.80;;
28003;SDS011;15330;51.234;6.754;2023-03-23T07:38:51;14.65;;;2.63;;
28003;SDS011;15330;51.234;6.754;2023-03-23T07:41:16;6.93;;;2.15;;
28003;SDS011;15330;51.234;6.754;2023-03-23T07:43:42;9.88;;;2.00;;
28003;SDS011;15330;51.234;6.754;2023-03-23T07:46:08;8.63;;;2.33;;
28003;SDS011;15330;51.234;6.754;2023-03-23T07:48:33;6.90;;;1.92;;
28003;SDS011;15330;51.234;6.754;2023-03-23T07:50:58;6.13;;;1.83;;
28003;SDS011;15330;51.234;6.754;2023-03-23T07:53:24;8.45;;;2.40;;
28003;SDS011;15330;51.234;6.754;2023-03-23T07:55:50;6.32;;;2.20;;
28003;SDS011;15330;51.234;6.754;2023-03-23T07:58:15;4.22;;;1.70;;
28003;SDS011;15330;51.234;6.754;2023-03-23T08:00:44;5.10;;;2.40;;
28003;SDS011;15330;51.234;6.754;2023-03-23T08:03:14;5.22;;;1.85;;
28003;SDS011;15330;51.234;6.754;2023-03-23T08:05:40;5.88;;;2.08;;
28003;SDS011;15330;51.234;6.754;2023-03-23T08:08:07;7.75;;;1.90;;
28003;SDS011;15330;51.234;6.754;2023-03-23T08:10:34;7.68;;;2.78;;
28003;SDS011;15330;51.234;6.754;2023-03-23T08:13:00;6.15;;;2.05;;
28003;SDS011;15330;51.234;6.754;2023-03-23T08:15:26;9.10;;;2.28;;
28003;SDS011;15330;51.234;6.754;2023-03-23T08:17:53;3.13;;;1.65;;
28003;SDS011;15330;51.234;6.754;2023-03-23T08:20:19;4.05;;;1.75;;
28003;SDS011;15330;51.234;6.754;2023-03-23T08:22:51;7.13;;;2.47;;
28003;SDS011;15330;51.234;6.754;2023-03-23T08:25:20;5.03;;;1.67;;
28003;SDS011;15330;51.234;6.754;2023-03-23T08:27:47;5.38;;;1.80;;
28003;SDS011;15330;51.234;6.754;2023-03-23T08:30:17;8.07;;;1.90;;
28003;SDS011;15330;51.234;6.754;2023-03-23T08:32:44;7.78;;;2.10;;
28003;SDS011;15330;51.234;6.754;2023-03-23T08:35:10;6.60;;;2.30;;
28003;SDS011;15330;51.234;6.754;2023-03-23T08:37:37;8.38;;;1.88;;
28003;SDS011;15330;51.234;6.754;2023-03-23T08:40:07;7.20;;;2.08;;
28003;SDS011;15330;51.234;6.754;2023-03-23T08:42:40;5.25;;;1.70;;
28003;SDS011;15330;51.234;6.754;2023-03-23T08:45:08;7.20;;;1.98;;
28003;SDS011;15330;51.234;6.754;2023-03-23T08:47:35;7.32;;;1.95;;
28003;SDS011;15330;51.234;6.754;2023-03-23T08:50:06;7.53;;;2.42;;
28003;SDS011;15330;51.234;6.754;2023-03-23T08:52:33;8.18;;;2.08;;
28003;SDS011;15330;51.234;6.754;2023-03-23T08:54:58;7.57;;;1.98;;
28003;SDS011;15330;51.234;6.754;2023-03-23T08:57:24;11.70;;;2.10;;
28003;SDS011;15330;51.234;6.754;2023-03-23T08:59:51;6.57;;;1.80;;
28003;SDS011;15330;51.234;6.754;2023-03-23T09:02:19;7.38;;;2.47;;
28003;SDS011;15330;51.234;6.754;2023-03-23T09:04:45;7.80;;;2.42;;
28003;SDS011;15330;51.234;6.754;2023-03-23T09:07:10;5.40;;;2.00;;
28003;SDS011;15330;51.234;6.754;2023-03-23T09:09:38;7.10;;;1.90;;
28003;SDS011;15330;51.234;6.754;2023-03-23T09:12:07;9.68;;;2.30;;
28003;SDS011;15330;51.234;6.754;2023-03-23T09:14:37;5.03;;;1.80;;
28003;SDS011;15330;51.234;6.754;2023-03-23T09:17:04;6.18;;;2.10;;
28003;SDS011;15330;51.234;6.754;2023-03-23T09:19:30;11.88;;;2.40;;
28003;SDS011;15330;51.234;6.754;2023-03-23T09:21:58;6.53;;;2.45;;
28003;SDS011;15330;51.234;6.754;2023-03-23T09:24:23;7.22;;;1.90;;
28003;SDS011;15330;51.234;6.754;2023-03-23T09:26:49;6.00;;;2.08;;
28003;SDS011;15330;51.234;6.754;2023-03-23T09:29:14;8.07;;;2.08;;
28003;SDS011;15330;51.234;6.754;2023-03-23T09:31:40;10.38;;;1.90;;
28003;SDS011;15330;51.234;6.754;2023-03-23T09:34:06;7.90;;;1.98;;
28003;SDS011;15330;51.234;6.754;2023-03-23T09:36:34;11.05;;;2.35;;
28003;SDS011;15330;51.234;6.754;2023-03-23T09:39:01;4.78;;;2.05;;
28003;SDS011;15330;51.234;6.754;2023-03-23T09:44:33;5.78;;;2.13;;
28003;SDS011;15330;51.234;6.754;2023-03-23T09:52:29;10.77;;;2.15;;
28003;SDS011;15330;51.234;6.754;2023-03-23T09:55:02;10.48;;;2.80;;
28003;SDS011;15330;51.234;6.754;2023-03-23T10:05:51;6.03;;;1.10;;
28003;SDS011;15330;51.234;6.754;2023-03-23T10:08:20;5.72;;;1.45;;
28003;SDS011;15330;51.234;6.754;2023-03-23T10:15:58;6.07;;;1.30;;
28003;SDS011;15330;51.234;6.754;2023-03-23T10:18:38;4.25;;;1.00;;
28003;SDS011;15330;51.234;6.754;2023-03-23T10:21:24;2.83;;;1.48;;
28003;SDS011;15330;51.234;6.754;2023-03-23T10:29:17;5.10;;;1.60;;
28003;SDS011;15330;51.234;6.754;2023-03-23T10:31:47;3.50;;;2.10;;
28003;SDS011;15330;51.234;6.754;2023-03-23T10:34:27;8.80;;;3.47;;
28003;SDS011;15330;51.234;6.754;2023-03-23T10:37:05;9.63;;;3.20;;
28003;SDS011;15330;51.234;6.754;2023-03-23T10:39:49;7.32;;;3.50;;
28003;SDS011;15330;51.234;6.754;2023-03-23T10:42:27;10.93;;;5.07;;
28003;SDS011;15330;51.234;6.754;2023-03-23T10:44:58;7.47;;;3.35;;
28003;SDS011;15330;51.234;6.754;2023-03-23T10:47:25;4.30;;;1.98;;
28003;SDS011;15330;51.234;6.754;2023-03-23T10:52:34;8.27;;;2.70;;
28003;SDS011;15330;51.234;6.754;2023-03-23T10:57:31;4.70;;;2.08;;
28003;SDS011;15330;51.234;6.754;2023-03-23T11:00:20;4.32;;;2.20;;
28003;SDS011;15330;51.234;6.754;2023-03-23T11:05:26;3.67;;;1.13;;
28003;SDS011;15330;51.234;6.754;2023-03-23T11:07:57;8.43;;;2.95;;
28003;SDS011;15330;51.234;6.754;2023-03-23T11:13:04;8.10;;;3.65;;
28003;SDS011;15330;51.234;6.754;2023-03-23T11:15:38;5.40;;;1.85;;
28003;SDS011;15330;51.234;6.754;2023-03-23T11:18:06;4.90;;;1.92;;
28003;SDS011;15330;51.234;6.754;2023-03-23T11:20:36;5.15;;;2.75;;
28003;SDS011;15330;51.234;6.754;2023-03-23T11:23:14;15.30;;;9.75;;
28003;SDS011;15330;51.234;6.754;2023-03-23T11:26:07;9.70;;;4.00;;
28003;SDS011;15330;51.234;6.754;2023-03-23T11:28:37;8.68;;;3.72;;
28003;SDS011;15330;51.234;6.754;2023-03-23T11:31:08;17.98;;;4.55;;
28003;SDS011;15330;51.234;6.754;2023-03-23T11:34:17;7.32;;;3.35;;
28003;SDS011;15330;51.234;6.754;2023-03-23T11:37:05;5.25;;;2.47;;
28003;SDS011;15330;51.234;6.754;2023-03-23T11:39:34;5.60;;;1.95;;
28003;SDS011;15330;51.234;6.754;2023-03-23T11:42:22;5.35;;;2.38;;
28003;SDS011;15330;51.234;6.754;2023-03-23T11:45:12;3.78;;;2.42;;
28003;SDS011;15330;51.234;6.754;2023-03-23T11:50:27;5.65;;;2.65;;
28003;SDS011;15330;51.234;6.754;2023-03-23T11:53:12;6.93;;;3.30;;
28003;SDS011;15330;51.234;6.754;2023-03-23T11:58:14;6.15;;;3.47;;
28003;SDS011;15330;51.234;6.754;2023-03-23T12:00:49;6.63;;;3.00;;
28003;SDS011;15330;51.234;6.754;2023-03-23T12:06:06;5.45;;;3.20;;
28003;SDS011;15330;51.234;6.754;2023-03-23T12:08:56;4.68;;;2.90;;
28003;SDS011;15330;51.234;6.754;2023-03-23T12:19:56;6.30;;;4.60;;
28003;SDS011;15330;51.234;6.754;2023-03-23T12:28:07;6.95;;;4.00;;
28003;SDS011;15330;51.234;6.754;2023-03-23T12:30:40;7.18;;;4.50;;
28003;SDS011;15330;51.234;6.754;2023-03-23T12:38:50;8.52;;;5.70;;
28003;SDS011;15330;51.234;6.754;2023-03-23T12:41:22;9.40;;;4.40;;
28003;SDS011;15330;51.234;6.754;2023-03-23T12:44:12;9.05;;;3.92;;
28003;SDS011;15330;51.234;6.754;2023-03-23T12:49:33;11.30;;;6.70;;
28003;SDS011;15330;51.234;6.754;2023-03-23T12:54:48;9.63;;;4.95;;
28003;SDS011;15330;51.234;6.754;2023-03-23T12:57:43;5.28;;;4.13;;
28003;SDS011;15330;51.234;6.754;2023-03-23T13:13:02;7.38;;;3.97;;
28003;SDS011;15330;51.234;6.754;2023-03-23T13:15:37;9.77;;;4.38;;
28003;SDS011;15330;51.234;6.754;2023-03-23T13:18:27;7.00;;;4.28;;
28003;SDS011;15330;51.234;6.754;2023-03-23T13:21:10;5.40;;;4.18;;
28003;SDS011;15330;51.234;6.754;2023-03-23T13:23:47;7.82;;;4.68;;
28003;SDS011;15330;51.234;6.754;2023-03-23T13:26:17;8.43;;;5.18;;
28003;SDS011;15330;51.234;6.754;2023-03-23T13:31:34;8.45;;;5.25;;
28003;SDS011;15330;51.234;6.754;2023-03-23T13:39:25;7.63;;;5.50;;
28003;SDS011;15330;51.234;6.754;2023-03-23T13:42:01;10.15;;;5.75;;
28003;SDS011;15330;51.234;6.754;2023-03-23T14:08:01;11.25;;;5.07;;
28003;SDS011;15330;51.234;6.754;2023-03-23T14:10:49;7.18;;;5.05;;
28003;SDS011;15330;51.234;6.754;2023-03-23T14:16:23;7.82;;;5.32;;
28003;SDS011;15330;51.234;6.754;2023-03-23T14:18:59;7.28;;;4.10;;
28003;SDS011;15330;51.234;6.754;2023-03-23T14:21:36;6.25;;;3.35;;
28003;SDS011;15330;51.234;6.754;2023-03-23T14:24:08;7.22;;;3.50;;
28003;SDS011;15330;51.234;6.754;2023-03-23T14:26:35;4.47;;;2.10;;
28003;SDS011;15330;51.234;6.754;2023-03-23T14:29:02;4.03;;;1.90;;
28003;SDS011;15330;51.234;6.754;2023-03-23T14:31:29;8.00;;;2.78;;
28003;SDS011;15330;51.234;6.754;2023-03-23T14:33:55;3.55;;;1.70;;
28003;SDS011;15330;51.234;6.754;2023-03-23T14:36:22;4.25;;;1.77;;
28003;SDS011;15330;51.234;6.754;2023-03-23T14:41:30;5.47;;;2.20;;
28003;SDS011;15330;51.234;6.754;2023-03-23T14:43:56;5.90;;;1.90;;
28003;SDS011;15330;51.234;6.754;2023-03-23T14:46:24;6.40;;;2.45;;
28003;SDS011;15330;51.234;6.754;2023-03-23T14:48:50;5.70;;;2.45;;
28003;SDS011;15330;51.234;6.754;2023-03-23T14:51:20;6.50;;;2.80;;
28003;SDS011;15330;51.234;6.754;2023-03-23T14:53:46;7.28;;;2.95;;
28003;SDS011;15330;51.234;6.754;2023-03-23T14:56:16;9.60;;;2.70;;
28003;SDS011;15330;51.234;6.754;2023-03-23T14:58:44;7.38;;;2.83;;
28003;SDS011;15330;51.234;6.754;2023-03-23T15:01:15;9.88;;;5.50;;
28003;SDS011;15330;51.234;6.754;2023-03-23T15:04:00;5.22;;;2.70;;
28003;SDS011;15330;51.234;6.754;2023-03-23T15:06:33;8.82;;;3.25;;
28003;SDS011;15330;51.234;6.754;2023-03-23T15:09:02;9.00;;;2.75;;
28003;SDS011;15330;51.234;6.754;2023-03-23T15:11:34;7.47;;;2.85;;
28003;SDS011;15330;51.234;6.754;2023-03-23T15:14:08;6.38;;;3.00;;
28003;SDS011;15330;51.234;6.754;2023-03-23T15:16:45;8.60;;;2.65;;
28003;SDS011;15330;51.234;6.754;2023-03-23T15:19:22;13.95;;;3.65;;
28003;SDS011;15330;51.234;6.754;2023-03-23T15:26:51;7.78;;;2.20;;
28003;SDS011;15330;51.234;6.754;2023-03-23T15:29:18;7.03;;;1.90;;
28003;SDS011;15330;51.234;6.754;2023-03-23T15:31:53;12.45;;;2.90;;
28003;SDS011;15330;51.234;6.754;2023-03-23T15:34:30;5.65;;;2.50;;
28003;SDS011;15330;51.234;6.754;2023-03-23T15:37:04;4.60;;;1.88;;
28003;SDS011;15330;51.234;6.754;2023-03-23T15:39:40;3.83;;;1.88;;
28003;SDS011;15330;51.234;6.754;2023-03-23T15:42:06;5.63;;;2.13;;
28003;SDS011;15330;51.234;6.754;2023-03-23T15:44:44;5.93;;;2.00;;
28003;SDS011;15330;51.234;6.754;2023-03-23T15:52:39;6.57;;;2.30;;
28003;SDS011;15330;51.234;6.754;2023-03-23T15:55:27;5.55;;;2.47;;
28003;SDS011;15330;51.234;6.754;2023-03-23T15:58:01;7.22;;;2.75;;
28003;SDS011;15330;51.234;6.754;2023-03-23T16:00:34;6.93;;;2.40;;
28003;SDS011;15330;51.234;6.754;2023-03-23T16:03:01;6.40;;;2.80;;
28003;SDS011;15330;51.234;6.754;2023-03-23T16:05:30;8.80;;;3.22;;
28003;SDS011;15330;51.234;6.754;2023-03-23T16:07:56;8.60;;;2.70;;
28003;SDS011;15330;51.234;6.754;2023-03-23T16:10:22;5.40;;;2.65;;
28003;SDS011;15330;51.234;6.754;2023-03-23T16:12:49;8.45;;;3.20;;
28003;SDS011;15330;51.234;6.754;2023-03-23T16:15:15;10.93;;;2.53;;
28003;SDS011;15330;51.234;6.754;2023-03-23T16:17:41;6.78;;;3.25;;
28003;SDS011;15330;51.234;6.754;2023-03-23T16:20:10;7.20;;;2.75;;
28003;SDS011;15330;51.234;6.754;2023-03-23T16:22:36;8.45;;;2.88;;
28003;SDS011;15330;51.234;6.754;2023-03-23T16:25:02;7.78;;;2.72;;
28003;SDS011;15330;51.234;6.754;2023-03-23T16:27:27;6.03;;;3.20;;
28003;SDS011;15330;51.234;6.754;2023-03-23T16:29:52;6.50;;;2.60;;
28003;SDS011;15330;51.234;6.754;2023-03-23T16:32:18;9.82;;;3.05;;
28003;SDS011;15330;51.234;6.754;2023-03-23T16:34:43;6.18;;;2.90;;
28003;SDS011;15330;51.234;6.754;2023-03-23T16:37:09;6.22;;;2.42;;
28003;SDS011;15330;51.234;6.754;2023-03-23T16:39:35;7.65;;;3.58;;
28003;SDS011;15330;51.234;6.754;2023-03-23T16:42:01;6.20;;;2.70;;
28003;SDS011;15330;51.234;6.754;2023-03-23T16:44:27;10.05;;;2.25;;
28003;SDS011;15330;51.234;6.754;2023-03-23T16:46:52;8.75;;;3.40;;
28003;SDS011;15330;51.234;6.754;2023-03-23T16:49:17;6.60;;;2.45;;
28003;SDS011;15330;51.234;6.754;2023-03-23T16:51:43;6.65;;;2.67;;
28003;SDS011;15330;51.234;6.754;2023-03-23T16:54:09;8.85;;;2.58;;
28003;SDS011;15330;51.234;6.754;2023-03-23T16:56:34;8.57;;;2.50;;
28003;SDS011;15330;51.234;6.754;2023-03-23T16:59:00;7.25;;;2.85;;
28003;SDS011;15330;51.234;6.754;2023-03-23T17:01:25;9.05;;;2.30;;
28003;SDS011;15330;51.234;6.754;2023-03-23T17:03:51;11.68;;;2.58;;
28003;SDS011;15330;51.234;6.754;2023-03-23T17:06:18;7.93;;;2.25;;
28003;SDS011;15330;51.234;6.754;2023-03-23T17:08:43;8.02;;;2.35;;
28003;SDS011;15330;51.234;6.754;2023-03-23T17:11:09;8.00;;;2.60;;
28003;SDS011;15330;51.234;6.754;2023-03-23T17:13:35;7.43;;;2.13;;
28003;SDS011;15330;51.234;6.754;2023-03-23T17:16:00;7.60;;;2.00;;
28003;SDS011;15330;51.234;6.754;2023-03-23T17:18:26;7.15;;;2.45;;
28003;SDS011;15330;51.234;6.754;2023-03-23T17:20:53;8.50;;;2.67;;
28003;SDS011;15330;51.234;6.754;2023-03-23T17:23:19;11.45;;;4.07;;
28003;SDS011;15330;51.234;6.754;2023-03-23T17:25:45;8.15;;;2.33;;
28003;SDS011;15330;51.234;6.754;2023-03-23T17:28:11;8.15;;;2.67;;
28003;SDS011;15330;51.234;6.754;2023-03-23T17:30:40;5.82;;;2.33;;
28003;SDS011;15330;51.234;6.754;2023-03-23T17:33:07;6.57;;;2.08;;